Time;durP1;ratioP1;P1;durP2;ratioP2;P2;SDS_P1;SDS_P2;PMS_P1;PMS_P2;Temp;Humidity;BMP_temperature;BMP_pressure;BME280_temperature;BME280_humidity;BME280_pressure;Samples;Min_cycle;Max_cycle;Signal;HPM_P1;HPM_P2
2021/11/19 00:01:15;;;;;;;82.00;35.78;;;;;;;2.59;100.00;100273.33;1788484;79;21135;-80
2021/11/19 00:03:42;;;;;;;82.88;33.75;;;;;;;2.62;100.00;100270.74;1734339;80;21080;-83
2021/11/19 00:06:10;;;;;;;85.87;35.88;;;;;;;2.66;100.00;100264.64;1704485;81;22177;-83
2021/11/19 00:08:37;;;;;;;72.20;30.52;;;;;;;2.69;100.00;100262.05;1753621;81;20966;-85
2021/11/19 00:11:09;;;;;;;81.90;35.15;;;;;;;2.68;100.00;100257.70;1753694;80;20914;-84
2021/11/19 00:13:38;;;;;;;78.22;33.55;;;;;;;2.66;100.00;100258.14;1753667;81;21473;-85
2021/11/19 00:16:06;;;;;;;83.05;37.53;;;;;;;2.64;100.00;100261.17;1753621;81;21080;-84
2021/11/19 00:18:33;;;;;;;77.92;34.63;;;;;;;2.61;100.00;100255.14;1753414;81;21029;-84
2021/11/19 00:21:01;;;;;;;77.17;34.27;;;;;;;2.57;100.00;100248.20;1752506;81;21009;-80
2021/11/19 00:23:28;;;;;;;76.62;33.45;;;;;;;2.54;100.00;100243.02;1752267;81;21070;-79
2021/11/19 00:25:54;;;;;;;77.67;34.45;;;;;;;2.48;100.00;100242.59;1752395;81;21175;-80
2021/11/19 00:28:21;;;;;;;70.83;31.95;;;;;;;2.44;100.00;100243.45;1752339;81;21563;-80
2021/11/19 00:30:48;;;;;;;78.50;33.85;;;;;;;2.38;100.00;100240.45;1752337;81;21117;-79
2021/11/19 00:33:14;;;;;;;75.20;33.50;;;;;;;2.33;100.00;100241.34;1752317;81;21077;-79
2021/11/19 00:35:43;;;;;;;60.93;26.93;;;;;;;2.28;100.00;100237.45;1752627;81;21033;-80
2021/11/19 00:38:11;;;;;;;70.40;31.80;;;;;;;2.23;100.00;100234.86;1752515;81;21053;-80
2021/11/19 00:40:49;;;;;;;72.85;31.35;;;;;;;2.18;100.00;100240.47;1752811;81;21013;-81
2021/11/19 00:43:16;;;;;;;86.40;35.23;;;;;;;2.10;100.00;100231.83;1748652;81;21084;-80
2021/11/19 00:45:42;;;;;;;70.12;30.72;;;;;;;2.10;100.00;100231.83;1780739;80;21056;-79
2021/11/19 00:48:10;;;;;;;72.97;32.88;;;;;;;2.08;100.00;100225.77;1740239;82;21040;-82
2021/11/19 00:50:44;;;;;;;73.85;32.48;;;;;;;2.08;100.00;100224.47;1740203;82;21200;-79
2021/11/19 00:53:13;;;;;;;68.37;32.65;;;;;;;2.07;100.00;100225.32;1779672;80;21032;-80
2021/11/19 00:55:39;;;;;;;68.42;31.12;;;;;;;2.08;100.00;100223.17;1780506;80;21552;-80
2021/11/19 00:58:07;;;;;;;73.97;32.80;;;;;;;2.06;100.00;100224.90;1780025;80;21547;-79
2021/11/19 01:00:43;;;;;;;76.30;35.08;;;;;;;2.07;100.00;100211.92;1773263;80;21745;-80
2021/11/19 01:03:12;;;;;;;70.65;32.38;;;;;;;2.07;100.00;100209.73;1748340;80;21394;-78
2021/11/19 01:05:38;;;;;;;76.60;33.80;;;;;;;2.07;100.00;100209.73;1748870;80;21068;-78
2021/11/19 01:08:06;;;;;;;76.55;33.53;;;;;;;2.08;100.00;100202.39;1749685;80;21147;-77
2021/11/19 01:10:35;;;;;;;76.97;33.18;;;;;;;2.07;100.00;100200.64;1754416;81;21127;-78
2021/11/19 01:13:02;;;;;;;65.15;30.08;;;;;;;2.07;100.00;100205.42;1755242;79;20984;-78
2021/11/19 01:15:39;;;;;;;65.20;29.80;;;;;;;2.08;100.00;100205.84;1775341;79;21044;-78
2021/11/19 01:18:17;;;;;;;67.82;31.68;;;;;;;2.10;100.00;100204.11;1772898;79;21199;-78
2021/11/19 01:20:54;;;;;;;61.88;29.72;;;;;;;2.14;100.00;100192.00;1773769;79;20972;-78
2021/11/19 01:23:22;;;;;;;71.12;31.60;;;;;;;2.17;100.00;100186.78;1794037;79;21043;-76
2021/11/19 01:25:56;;;;;;;63.98;30.37;;;;;;;2.22;100.00;100183.73;1771681;80;21063;-76
2021/11/19 01:28:23;;;;;;;65.25;29.98;;;;;;;2.27;100.00;100185.02;1771542;81;21968;-77
2021/11/19 01:30:57;;;;;;;71.25;31.15;;;;;;;2.28;100.00;100174.64;1771932;81;21082;-76
2021/11/19 01:33:25;;;;;;;69.58;31.05;;;;;;;2.34;100.00;100185.44;1771410;80;21032;-77
2021/11/19 01:35:56;;;;;;;77.82;32.30;;;;;;;2.39;100.00;100180.23;1771163;80;21554;-79
2021/11/19 01:38:42;;;;;;;67.55;29.90;;;;;;;2.42;100.00;100167.24;1778524;80;21844;-80
2021/11/19 01:41:33;;;;;;;64.85;29.30;;;;;;;2.45;100.00;100176.32;1784319;80;21508;-79
2021/11/19 01:44:02;;;;;;;59.30;26.80;;;;;;;2.50;100.00;100174.56;1786321;80;21006;-80
2021/11/19 01:46:31;;;;;;;71.12;29.30;;;;;;;2.57;100.00;100183.20;1763189;80;21021;-78
2021/11/19 01:48:58;;;;;;;59.88;27.37;;;;;;;2.60;100.00;100173.67;1785863;79;21391;-79
2021/11/19 01:51:33;;;;;;;60.90;27.62;;;;;;;2.65;100.00;100165.41;1796093;79;21118;-80
2021/11/19 01:54:26;;;;;;;49.03;24.25;;;;;;;2.66;100.00;100167.13;1774528;79;21539;-79
2021/11/19 01:57:04;;;;;;;49.50;25.80;;;;;;;2.71;100.00;100164.09;1782095;79;20955;-83
2021/11/19 01:59:40;;;;;;;56.02;25.92;;;;;;;2.75;100.00;100157.12;1804965;79;21049;-81
2021/11/19 02:02:15;;;;;;;56.18;25.60;;;;;;;2.77;100.00;100152.78;1805104;79;21536;-81
2021/11/19 02:04:50;;;;;;;51.90;25.20;;;;;;;2.79;100.00;100154.95;1805558;78;21531;-80
2021/11/19 02:07:44;;;;;;;51.98;22.75;;;;;;;2.83;100.00;100144.08;1802609;79;22188;-81
2021/11/19 02:10:27;;;;;;;53.68;25.35;;;;;;;2.88;100.00;100147.55;1800061;79;21139;-79
2021/11/19 02:13:14;;;;;;;53.28;24.57;;;;;;;2.90;100.00;100134.09;1747815;82;21039;-80
2021/11/19 02:15:59;;;;;;;50.75;24.20;;;;;;;2.93;100.00;100135.37;1748226;82;21051;-78
2021/11/19 02:18:32;;;;;;;49.93;24.35;;;;;;;2.97;100.00;100131.88;1747407;82;21126;-81
2021/11/19 02:21:10;;;;;;;51.48;24.60;;;;;;;2.97;100.00;100131.88;1747765;81;22177;-78
2021/11/19 02:23:46;;;;;;;48.58;23.32;;;;;;;2.93;100.00;100132.77;1747422;81;20995;-77
2021/11/19 02:26:18;;;;;;;50.30;23.22;;;;;;;2.90;100.00;100130.20;1747391;82;21074;-76
2021/11/19 02:28:47;;;;;;;51.00;23.27;;;;;;;2.91;100.00;100130.61;1747580;81;21086;-79
2021/11/19 02:31:21;;;;;;;42.03;22.58;;;;;;;2.91;100.00;100126.70;1747710;82;22097;-80
2021/11/19 02:33:50;;;;;;;50.58;24.40;;;;;;;2.89;100.00;100131.05;1747190;82;21526;-78
2021/11/19 02:36:24;;;;;;;47.65;24.30;;;;;;;2.87;100.00;100136.69;1747591;82;21071;-79
2021/11/19 02:39:15;;;;;;;50.58;23.60;;;;;;;2.86;100.00;100127.17;1800592;78;21037;-78
2021/11/19 02:41:48;;;;;;;49.50;23.22;;;;;;;2.82;100.00;100125.45;1747618;82;21126;-78
2021/11/19 02:44:20;;;;;;;48.15;23.38;;;;;;;2.76;100.00;100127.67;1747425;82;21110;-77
2021/11/19 02:46:56;;;;;;;43.28;22.55;;;;;;;2.69;100.00;100122.93;1747876;82;21137;-81
2021/11/19 02:49:24;;;;;;;48.33;22.25;;;;;;;2.64;100.00;100126.41;1774306;79;21046;-79
2021/11/19 02:51:50;;;;;;;47.62;23.65;;;;;;;2.56;100.00;100122.55;1801660;79;21053;-79
2021/11/19 02:54:23;;;;;;;58.40;26.82;;;;;;;2.49;100.00;100123.45;1798230;79;21030;-79
2021/11/19 02:56:50;;;;;;;55.20;25.50;;;;;;;2.42;100.00;100121.76;1788141;79;21584;-78
2021/11/19 02:59:18;;;;;;;51.73;23.70;;;;;;;2.36;100.00;100126.52;1740635;81;21122;-78
2021/11/19 03:01:52;;;;;;;49.38;23.85;;;;;;;2.29;100.00;100134.77;1727499;82;21072;-77
2021/11/19 03:04:34;;;;;;;55.75;24.20;;;;;;;2.23;100.00;100137.41;1793606;78;21014;-80
2021/11/19 03:07:01;;;;;;;49.77;23.90;;;;;;;2.17;100.00;100137.86;1747642;82;21047;-81
2021/11/19 03:09:34;;;;;;;50.25;23.87;;;;;;;2.12;100.00;100136.98;1742234;82;21526;-79
2021/11/19 03:12:02;;;;;;;48.73;23.12;;;;;;;2.08;100.00;100131.80;1735427;82;21053;-80
2021/11/19 03:14:30;;;;;;;44.80;22.20;;;;;;;2.04;100.00;100116.23;1735560;82;21058;-77
2021/11/19 03:16:58;;;;;;;48.48;23.65;;;;;;;2.00;100.00;100110.61;1735581;82;22053;-80
2021/11/19 03:19:27;;;;;;;43.45;22.70;;;;;;;1.98;100.00;100108.44;1735792;82;21039;-80
2021/11/19 03:21:53;;;;;;;47.48;22.60;;;;;;;1.93;100.00;100108.89;1735565;82;20987;-78
2021/11/19 03:24:21;;;;;;;40.00;20.12;;;;;;;1.91;100.00;100110.22;1713117;82;21093;-77
2021/11/19 03:26:51;;;;;;;41.37;21.20;;;;;;;1.85;100.00;100099.83;1735540;82;21070;-79
2021/11/19 03:29:20;;;;;;;41.48;21.60;;;;;;;1.78;100.00;100083.39;1735648;82;21030;-79
2021/11/19 03:31:48;;;;;;;51.02;23.95;;;;;;;1.70;100.00;100068.25;1735536;82;21066;-79
2021/11/19 03:34:15;;;;;;;48.60;22.75;;;;;;;1.70;100.00;100068.25;1735751;82;21110;-78
2021/11/19 03:36:47;;;;;;;50.17;23.40;;;;;;;1.68;100.00;100072.61;1735574;82;21128;-79
2021/11/19 03:39:15;;;;;;;52.88;24.27;;;;;;;1.57;100.00;100069.16;1735616;82;21137;-79
2021/11/19 03:41:43;;;;;;;45.45;22.87;;;;;;;1.57;100.00;100069.16;1703384;82;21038;-78
2021/11/19 03:44:25;;;;;;;48.35;23.85;;;;;;;1.54;100.00;100072.63;1735839;82;21090;-80
2021/11/19 03:47:03;;;;;;;45.92;22.62;;;;;;;1.54;100.00;100071.74;1735955;82;21062;-82
2021/11/19 03:49:30;;;;;;;46.18;23.47;;;;;;;1.55;100.00;100076.08;1736297;82;21076;-80
2021/11/19 03:52:08;;;;;;;33.80;18.48;;;;;;;1.54;100.00;100073.93;1735920;82;21530;-80
2021/11/19 03:54:37;;;;;;;48.08;22.02;;;;;;;1.58;100.00;100074.77;1735741;82;21094;-82
2021/11/19 03:57:04;;;;;;;45.55;21.48;;;;;;;1.64;100.00;100071.73;1736990;82;21016;-84
2021/11/19 03:59:31;;;;;;;41.25;20.60;;;;;;;1.70;100.00;100074.73;1736577;82;21482;-82
2021/11/19 04:24:34;;;;;;;36.03;19.42;;;;;;;2.17;100.00;100040.43;1692257;82;21181;-78
2021/11/19 04:27:02;;;;;;;46.25;20.12;;;;;;;2.20;100.00;100043.86;1684210;84;21061;-80
2021/11/19 04:29:31;;;;;;;44.67;19.70;;;;;;;2.23;100.00;100047.77;1707397;83;21113;-79
2021/11/19 04:32:00;;;;;;;32.85;17.87;;;;;;;2.28;100.00;100042.11;1724368;82;21030;-82
2021/11/19 04:34:26;;;;;;;38.65;20.95;;;;;;;2.29;100.00;100033.42;1736199;81;21155;-82
2021/11/19 04:36:53;;;;;;;41.83;21.77;;;;;;;2.31;100.00;100032.12;1739886;81;20995;-82
2021/11/19 04:39:21;;;;;;;43.60;21.93;;;;;;;2.31;100.00;100028.23;1724828;81;21359;-81
2021/11/19 04:41:47;;;;;;;39.18;20.52;;;;;;;2.34;100.00;100027.34;1713860;83;21063;-82
2021/11/19 04:44:14;;;;;;;35.95;19.85;;;;;;;2.37;100.00;100024.31;1726824;82;21019;-82
2021/11/19 04:46:43;;;;;;;45.70;21.05;;;;;;;2.39;100.00;100015.19;1711592;81;21315;-78
2021/11/19 04:49:10;;;;;;;39.75;19.92;;;;;;;2.41;100.00;100003.05;1698354;83;21118;-79
2021/11/19 04:51:40;;;;;;;43.05;20.72;;;;;;;2.44;100.00;100003.02;1698564;83;21054;-74
2021/11/19 04:54:07;;;;;;;43.10;23.07;;;;;;;2.46;100.00;99999.98;1699064;84;21054;-77
2021/11/19 04:56:34;;;;;;;47.73;22.52;;;;;;;2.46;100.00;99999.98;1726011;81;21099;-75
2021/11/19 04:59:01;;;;;;;41.58;21.95;;;;;;;2.48;100.00;100003.44;1747540;81;21815;-76
2021/11/19 05:01:32;;;;;;;41.00;20.62;;;;;;;2.50;100.00;99997.35;1736025;81;22332;-79
2021/11/19 05:04:04;;;;;;;38.90;19.87;;;;;;;2.53;100.00;100000.36;1731130;81;21092;-79
2021/11/19 05:06:32;;;;;;;37.90;19.95;;;;;;;2.57;100.00;100004.67;1739604;81;21092;-82
2021/11/19 05:09:01;;;;;;;43.58;21.50;;;;;;;2.57;100.00;99995.58;1757762;81;20997;-79
2021/11/19 05:11:36;;;;;;;40.12;20.32;;;;;;;2.58;100.00;99997.32;1741372;81;21165;-78
2021/11/19 05:14:05;;;;;;;44.98;19.82;;;;;;;2.61;100.00;99997.29;1756882;81;21096;-76
2021/11/19 05:16:33;;;;;;;38.65;21.25;;;;;;;2.64;100.00;100007.66;1758388;81;21135;-76
2021/11/19 05:19:00;;;;;;;42.80;20.48;;;;;;;2.66;100.00;100012.42;1757051;81;21069;-76
2021/11/19 05:21:28;;;;;;;42.48;21.12;;;;;;;2.67;100.00;100010.26;1738142;81;21158;-78
2021/11/19 05:23:55;;;;;;;50.45;21.35;;;;;;;2.71;100.00;100013.27;1721542;83;21478;-77
2021/11/19 05:26:24;;;;;;;48.58;22.20;;;;;;;2.75;100.00;100002.84;1733690;82;21030;-78
2021/11/19 05:28:51;;;;;;;46.70;23.02;;;;;;;2.73;100.00;99996.34;1741562;82;21077;-77
2021/11/19 05:31:18;;;;;;;47.10;24.82;;;;;;;2.73;100.00;99990.69;1720782;83;21058;-77
2021/11/19 05:33:46;;;;;;;45.33;23.55;;;;;;;2.76;100.00;99985.94;1745037;81;21117;-77
2021/11/19 05:36:12;;;;;;;51.90;23.65;;;;;;;2.80;100.00;99997.16;1731481;81;21064;-77
2021/11/19 05:38:41;;;;;;;57.73;26.20;;;;;;;2.81;100.00;99978.09;1735079;81;21043;-76
2021/11/19 05:41:11;;;;;;;47.67;23.05;;;;;;;2.83;100.00;99982.41;1737499;81;21083;-78
2021/11/19 05:43:42;;;;;;;52.95;23.87;;;;;;;2.85;100.00;99977.17;1719486;81;28284;-78
2021/11/19 05:46:12;;;;;;;47.15;21.30;;;;;;;2.88;100.00;99978.02;1750742;81;21561;-76
2021/11/19 05:48:51;;;;;;;43.83;22.32;;;;;;;2.92;100.00;99975.83;1750909;81;21516;-77
2021/11/19 05:51:19;;;;;;;47.85;23.52;;;;;;;2.92;100.00;99968.44;1719504;81;21086;-74
2021/11/19 05:53:46;;;;;;;48.80;24.02;;;;;;;2.94;100.00;99962.79;1751317;81;21604;-76
2021/11/19 05:56:14;;;;;;;44.77;22.62;;;;;;;2.96;100.00;99972.75;1751760;81;21121;-78
2021/11/19 05:58:41;;;;;;;51.18;23.83;;;;;;;2.96;100.00;99966.24;1731487;81;21058;-78
2021/11/19 06:01:13;;;;;;;51.42;25.37;;;;;;;2.94;100.00;99963.68;1721009;82;21113;-78
2021/11/19 06:03:44;;;;;;;56.83;24.67;;;;;;;2.93;100.00;99960.64;1720708;83;21118;-78
2021/11/19 06:06:20;;;;;;;55.23;24.25;;;;;;;2.93;100.00;99958.48;1721624;83;21529;-78
2021/11/19 06:09:04;;;;;;;48.10;24.90;;;;;;;2.94;100.00;99965.39;1719475;83;21522;-78
2021/11/19 06:11:42;;;;;;;44.63;22.48;;;;;;;2.96;100.00;99962.34;1730980;82;21067;-78
2021/11/19 06:14:13;;;;;;;49.37;23.87;;;;;;;2.95;100.00;99967.13;1719612;82;21537;-78
2021/11/19 06:16:54;;;;;;;55.85;25.43;;;;;;;2.94;100.00;99957.59;1700041;82;21114;-77
2021/11/19 06:19:23;;;;;;;;;;;;;;;2.92;100.00;99951.53;1725559;82;21080;-77
2021/11/19 06:21:56;;;;;;;51.42;23.83;;;;;;;2.89;100.00;99944.62;1717237;82;20539;-78
2021/11/19 06:24:31;;;;;;;53.28;25.77;;;;;;;2.91;100.00;99941.58;1707917;84;21012;-77
2021/11/19 06:26:58;;;;;;;71.47;31.45;;;;;;;2.91;100.00;99941.58;1708300;84;21226;-77
2021/11/19 06:29:26;;;;;;;78.20;34.10;;;;;;;2.92;100.00;99941.13;1683864;84;21114;-78
2021/11/19 06:31:56;;;;;;;78.02;37.08;;;;;;;2.90;100.00;99937.70;1727892;81;21076;-78
2021/11/19 06:34:23;;;;;;;72.32;34.05;;;;;;;2.91;100.00;99929.87;1733061;81;21077;-78
2021/11/19 06:36:50;;;;;;;79.37;33.88;;;;;;;2.93;100.00;99934.63;1708662;83;21022;-79
2021/11/19 06:39:19;;;;;;;72.12;31.80;;;;;;;2.92;100.00;99926.41;1721474;83;21138;-79
2021/11/19 06:41:47;;;;;;;81.53;33.80;;;;;;;2.91;100.00;99921.20;1721535;83;21039;-78
2021/11/19 06:44:24;;;;;;;78.90;33.88;;;;;;;2.90;100.00;99922.09;1701042;83;20973;-79
2021/11/19 06:46:52;;;;;;;73.30;31.62;;;;;;;2.90;100.00;99920.80;1664771;82;21028;-79
2021/11/19 06:49:24;;;;;;;71.70;29.87;;;;;;;2.87;100.00;99911.70;1712177;82;21068;-80
2021/11/19 06:52:08;;;;;;;64.82;28.00;;;;;;;2.86;100.00;99911.30;1692911;84;21112;-79
2021/11/19 06:54:39;;;;;;;64.05;27.42;;;;;;;2.83;100.00;99909.58;1737234;81;21023;-79
2021/11/19 06:57:19;;;;;;;66.70;30.57;;;;;;;2.85;100.00;99904.34;1714777;81;21412;-78
2021/11/19 06:59:47;;;;;;;68.15;30.05;;;;;;;2.86;100.00;99902.19;1797075;77;20978;-79
2021/11/19 07:02:13;;;;;;;62.15;30.35;;;;;;;2.84;100.00;99893.53;1761312;79;21032;-79
2021/11/19 07:04:42;;;;;;;66.42;31.40;;;;;;;2.82;100.00;99887.48;1782584;79;21124;-79
2021/11/19 07:07:09;;;;;;;58.52;28.52;;;;;;;2.79;100.00;99890.12;1772382;79;21036;-79
2021/11/19 07:09:38;;;;;;;64.92;30.17;;;;;;;2.79;100.00;99892.72;1777101;79;21092;-78
2021/11/19 07:12:08;;;;;;;63.02;29.92;;;;;;;2.80;100.00;99884.03;1784770;79;21029;-79
2021/11/19 07:14:38;;;;;;;65.72;30.57;;;;;;;2.79;100.00;99872.77;1777632;79;21041;-77
2021/11/19 07:17:07;;;;;;;66.17;30.43;;;;;;;2.79;100.00;99877.12;1780005;80;21107;-79
2021/11/19 07:19:37;;;;;;;53.10;26.40;;;;;;;2.78;100.00;99867.58;1779966;79;21185;-80
2021/11/19 07:22:04;;;;;;;60.73;28.87;;;;;;;2.76;100.00;99870.63;1780322;79;21092;-79
2021/11/19 07:24:35;;;;;;;61.85;27.62;;;;;;;2.73;100.00;99858.07;1779785;80;21481;-79
2021/11/19 07:27:04;;;;;;;59.60;28.40;;;;;;;2.76;100.00;99860.22;1778875;80;22072;-79
2021/11/19 07:29:31;;;;;;;55.70;27.77;;;;;;;2.75;100.00;99857.22;1779491;79;21123;-79
2021/11/19 07:31:58;;;;;;;60.60;29.27;;;;;;;2.76;100.00;99858.92;1779535;80;21022;-78
2021/11/19 07:37:23;;;;;;;57.63;29.83;;;;;;;2.82;100.00;99857.58;1795136;79;24622;-78
2021/11/19 07:40:01;;;;;;;58.48;28.80;;;;;;;2.76;100.00;99855.02;1773845;80;21507;-78
2021/11/19 07:42:30;;;;;;;61.60;28.73;;;;;;;2.75;100.00;99856.77;1773029;80;21529;-79
2021/11/19 07:45:01;;;;;;;50.55;26.05;;;;;;;2.77;100.00;99859.36;1775037;80;20933;-78
2021/11/19 07:47:29;;;;;;;57.75;26.90;;;;;;;2.76;100.00;99856.32;1764880;80;21338;-79
2021/11/19 07:49:56;;;;;;;58.65;25.88;;;;;;;2.80;100.00;99854.13;1786057;80;21061;-79
2021/11/19 07:52:25;;;;;;;51.50;25.70;;;;;;;2.81;100.00;99859.77;1773034;80;21047;-78
2021/11/19 07:54:52;;;;;;;50.78;25.40;;;;;;;2.78;100.00;99859.77;1782234;80;21900;-78
2021/11/19 07:57:20;;;;;;;45.35;25.70;;;;;;;2.78;100.00;99859.77;1756556;80;21638;-78
2021/11/19 07:59:47;;;;;;;47.30;24.55;;;;;;;2.76;100.00;99848.52;1746894;80;21579;-78
2021/11/19 08:02:13;;;;;;;44.67;24.75;;;;;;;2.79;100.00;99855.02;1726176;80;21032;-79
2021/11/19 08:04:40;;;;;;;44.95;25.05;;;;;;;2.80;100.00;99851.52;1725952;83;21131;-79
2021/11/19 08:07:08;;;;;;;50.65;25.17;;;;;;;2.79;100.00;99844.61;1726748;82;21160;-82
2021/11/19 08:09:45;;;;;;;51.15;25.75;;;;;;;2.84;100.00;99847.58;1728397;82;21126;-85
2021/11/19 08:12:14;;;;;;;51.20;25.17;;;;;;;2.85;100.00;99842.81;1733952;82;21378;-87
2021/11/19 08:14:42;;;;;;;48.15;24.57;;;;;;;2.86;100.00;99839.77;1733001;81;21094;-86
2021/11/19 08:17:28;;;;;;;48.42;24.65;;;;;;;2.90;100.00;99840.16;1733501;82;21078;-78
2021/11/19 08:19:59;;;;;;;47.43;24.35;;;;;;;2.92;100.00;99831.47;1742498;81;21763;-78
2021/11/19 08:22:27;;;;;;;49.70;25.02;;;;;;;2.98;100.00;99817.52;1755702;80;21052;-78
2021/11/19 08:24:53;;;;;;;50.58;25.57;;;;;;;3.03;100.00;99809.66;1750913;81;21162;-79
2021/11/19 08:27:24;;;;;;;53.78;27.25;;;;;;;3.01;100.00;99807.06;1752638;81;21014;-80
2021/11/19 08:29:54;;;;;;;49.35;25.40;;;;;;;3.04;100.00;99803.15;1750694;81;21082;-79
2021/11/19 08:32:23;;;;;;;;;;;;;;;3.00;100.00;99801.45;1756272;81;21029;-79
2021/11/19 08:34:50;;;;;;;52.35;27.87;;;;;;;2.98;100.00;99798.01;1744600;81;20206;-80
2021/11/19 08:37:19;;;;;;;48.63;27.95;;;;;;;2.94;100.00;99802.41;1727999;81;21050;-80
2021/11/19 08:39:46;;;;;;;51.25;27.07;;;;;;;2.94;100.00;99789.80;1741261;82;21130;-81
2021/11/19 08:42:13;;;;;;;46.77;24.98;;;;;;;2.95;100.00;99785.05;1718386;82;21083;-80
2021/11/19 08:44:43;;;;;;;47.60;24.55;;;;;;;2.95;100.00;99782.45;1743879;82;22094;-80
2021/11/19 08:47:10;;;;;;;60.03;29.65;;;;;;;2.96;100.00;99780.25;1742598;82;21545;-81
2021/11/19 08:49:38;;;;;;;70.30;35.15;;;;;;;2.94;100.00;99771.59;1742857;82;21115;-80
2021/11/19 08:52:08;;;;;;;64.58;34.35;;;;;;;2.91;100.00;99767.75;1742209;82;21046;-81
2021/11/19 08:54:35;;;;;;;63.05;32.55;;;;;;;2.89;100.00;99759.09;1720958;82;21541;-81
2021/11/19 08:57:07;;;;;;;56.90;29.05;;;;;;;2.86;100.00;99751.34;1740346;82;21184;-76
2021/11/19 08:59:35;;;;;;;60.70;31.07;;;;;;;2.85;100.00;99748.30;1724664;81;21121;-79
2021/11/19 09:02:02;;;;;;;63.52;32.10;;;;;;;2.86;100.00;99738.34;1707583;82;21050;-86
2021/11/19 09:04:30;;;;;;;59.88;33.13;;;;;;;2.87;100.00;99744.80;1705641;84;21066;-84
2021/11/19 09:06:57;;;;;;;74.00;36.73;;;;;;;2.85;100.00;99731.39;1706528;84;20975;-87
2021/11/19 09:09:24;;;;;;;74.03;38.60;;;;;;;2.87;100.00;99725.73;1705372;83;21694;-89
2021/11/19 09:11:51;;;;;;;69.45;38.23;;;;;;;2.89;100.00;99720.08;1730457;82;21033;-88
2021/11/19 09:14:21;;;;;;;71.42;35.65;;;;;;;2.89;100.00;99722.23;1743410;82;21014;-87
2021/11/19 09:17:05;;;;;;;64.85;34.95;;;;;;;2.91;100.00;99715.72;1736961;82;21046;-89
2021/11/19 09:19:55;;;;;;;72.70;39.03;;;;;;;2.94;100.00;99710.47;1698555;83;21022;-86
2021/11/19 09:22:32;;;;;;;71.28;36.95;;;;;;;2.93;100.00;99711.36;1714477;82;21060;-81
2021/11/19 09:25:01;;;;;;;75.92;39.48;;;;;;;2.95;100.00;99699.20;1713985;83;21018;-81
2021/11/19 09:27:28;;;;;;;74.82;37.55;;;;;;;2.97;100.00;99700.05;1725860;82;21574;-83
2021/11/19 09:30:13;;;;;;;66.97;35.73;;;;;;;2.99;100.00;99695.69;1722654;82;21560;-82
2021/11/19 09:32:37;;;;;;;79.62;41.05;;;;;;;3.01;100.00;99693.90;1729471;82;21037;-82
2021/11/19 09:35:05;;;;;;;83.12;40.83;;;;;;;3.04;100.00;99689.13;1724394;82;21196;-82
2021/11/19 09:37:31;;;;;;;88.35;42.15;;;;;;;3.05;100.00;99681.73;1737649;82;21045;-82
2021/11/19 09:39:58;;;;;;;84.37;41.23;;;;;;;3.07;100.00;99682.13;1728995;82;21076;-82
2021/11/19 09:43:09;;;;;;;67.58;34.58;;;;;;;3.10;100.00;99674.71;1743262;82;20962;-82
2021/11/19 09:46:18;;;;;;;70.32;37.30;;;;;;;3.11;100.00;99669.50;1728489;82;21049;-81
2021/11/19 09:48:59;;;;;;;79.20;37.58;;;;;;;3.11;100.00;99676.45;1665829;85;21168;-82
2021/11/19 09:52:00;;;;;;;66.20;35.30;;;;;;;3.14;100.00;99664.23;1665416;84;21113;-82
2021/11/19 09:54:56;;;;;;;65.78;34.27;;;;;;;3.15;100.00;99656.88;1667608;85;21026;-81
2021/11/19 09:58:01;;;;;;;69.67;35.52;;;;;;;3.15;100.00;99649.48;1675772;85;21503;-81
2021/11/19 10:00:56;;;;;;;59.65;30.48;;;;;;;3.13;100.00;99635.21;1678756;85;21564;-82
2021/11/19 10:03:56;;;;;;;52.67;27.62;;;;;;;3.22;100.00;99633.34;1680149;85;21625;-82
2021/11/19 10:06:31;;;;;;;57.90;31.50;;;;;;;3.25;100.00;99630.71;1678333;85;21100;-83
2021/11/19 10:09:03;;;;;;;68.17;34.98;;;;;;;3.27;100.00;99615.48;1679642;85;21060;-83
2021/11/19 10:11:43;;;;;;;68.42;35.23;;;;;;;3.25;100.00;99609.45;1680554;85;21077;-83
2021/11/19 10:14:33;;;;;;;69.87;35.30;;;;;;;3.26;100.00;99605.09;1681170;85;21094;-82
2021/11/19 10:17:12;;;;;;;61.80;30.23;;;;;;;3.28;100.00;99594.22;1680686;85;21594;-82
2021/11/19 10:19:50;;;;;;;63.50;30.17;;;;;;;3.32;100.00;99596.75;1680572;85;21057;-82
2021/11/19 10:22:33;;;;;;;59.40;28.95;;;;;;;3.35;100.00;99586.73;1679940;85;21614;-78
2021/11/19 10:28:57;;;;;;;61.45;29.75;;;;;;;3.41;100.00;99574.08;1668482;85;21066;-77
2021/11/19 10:31:25;;;;;;;58.87;28.73;;;;;;;3.43;100.00;99573.16;1684108;85;21155;-77
2021/11/19 10:34:14;;;;;;;58.48;30.00;;;;;;;3.44;100.00;99568.35;1678759;85;21130;-78
2021/11/19 10:37:03;;;;;;;71.07;34.35;;;;;;;3.45;100.00;99562.28;1607470;88;21077;-77
2021/11/19 10:39:59;;;;;;;58.87;31.40;;;;;;;3.50;100.00;99560.45;1597865;89;21109;-77
2021/11/19 10:42:56;;;;;;;60.35;30.17;;;;;;;3.51;100.00;99554.34;1624206;88;21044;-77
2021/11/19 10:45:31;;;;;;;61.28;31.57;;;;;;;3.51;100.00;99553.49;1657191;86;21223;-78
2021/11/19 10:48:12;;;;;;;61.68;32.08;;;;;;;3.51;100.00;99540.02;1667508;85;21047;-77
2021/11/19 10:50:56;;;;;;;67.00;32.78;;;;;;;3.54;100.00;99534.78;1672752;85;21061;-78
2021/11/19 10:54:06;;;;;;;56.55;30.72;;;;;;;3.52;100.00;99523.53;1643018;85;21145;-78
2021/11/19 10:57:00;;;;;;;52.33;28.15;;;;;;;3.57;100.00;99525.61;1649015;85;21118;-78
2021/11/19 10:59:39;;;;;;;58.78;30.55;;;;;;;3.65;100.00;99517.64;1678558;85;21164;-77
2021/11/19 11:02:14;;;;;;;58.13;28.32;;;;;;;3.65;100.00;99516.79;1687362;85;21075;-78
2021/11/19 11:04:55;;;;;;;54.18;29.50;;;;;;;3.67;100.00;99514.56;1687431;85;21097;-78
2021/11/19 11:07:30;;;;;;;57.75;28.50;;;;;;;3.74;100.00;99516.17;1687622;85;21086;-78
2021/11/19 11:10:11;;;;;;;53.90;29.05;;;;;;;3.76;100.00;99514.84;1687817;85;21125;-80
2021/11/19 11:12:52;;;;;;;52.93;26.93;;;;;;;3.80;100.00;99511.30;1687901;85;21854;-79
2021/11/19 11:15:37;;;;;;;55.30;28.17;;;;;;;3.81;100.00;99511.70;1687393;85;21608;-79
2021/11/19 11:18:19;;;;;;;55.70;28.00;;;;;;;3.80;100.00;99508.70;1687574;85;21537;-79
2021/11/19 11:21:29;;;;;;;46.33;26.65;;;;;;;3.84;100.00;99499.91;1688130;84;21046;-79
2021/11/19 11:24:30;;;;;;;59.98;29.50;;;;;;;3.85;100.00;99494.28;1701212;83;21077;-78
2021/11/19 11:27:13;;;;;;;51.80;27.90;;;;;;;3.86;100.00;99496.83;1687414;83;21561;-79
2021/11/19 11:29:54;;;;;;;50.12;26.80;;;;;;;3.86;100.00;99493.38;1700945;83;21021;-79
2021/11/19 11:32:27;;;;;;;;;;;;;;;3.86;100.00;99490.32;1715873;83;21053;-79
2021/11/19 11:35:11;;;;;;;52.85;25.30;;;;;;;3.90;100.00;99498.95;1690406;83;20209;-79
2021/11/19 11:38:11;;;;;;;53.65;27.15;;;;;;;3.87;100.00;99502.48;1716400;83;21038;-76
2021/11/19 11:40:56;;;;;;;51.83;26.45;;;;;;;3.88;100.00;99500.27;1626443;87;21139;-83
2021/11/19 11:43:33;;;;;;;36.75;20.90;;;;;;;3.91;100.00;99492.41;1627379;87;21673;-83
2021/11/19 11:46:27;;;;;;;36.13;20.52;;;;;;;3.96;100.00;99495.78;1654090;83;21031;-84
2021/11/19 11:49:15;;;;;;;47.80;25.75;;;;;;;4.08;100.00;99488.61;1668589;85;21059;-83
2021/11/19 11:52:08;;;;;;;51.80;27.67;;;;;;;4.12;100.00;99487.20;1660185;85;21082;-84
2021/11/19 11:54:53;;;;;;;52.15;26.62;;;;;;;4.15;100.00;99484.52;1677956;85;21150;-83
2021/11/19 11:57:30;;;;;;;48.17;26.55;;;;;;;4.19;100.00;99489.24;1664682;85;21475;-83
2021/11/19 12:00:11;;;;;;;50.40;26.33;;;;;;;4.19;100.00;99486.63;1617978;87;21568;-83
2021/11/19 12:02:52;;;;;;;46.37;25.97;;;;;;;4.14;100.00;99480.64;1606654;88;21110;-83
2021/11/19 12:05:45;;;;;;;46.05;25.90;;;;;;;4.13;100.00;99484.14;1603309;88;21107;-83
2021/11/19 12:08:38;;;;;;;46.20;24.40;;;;;;;4.13;100.00;99481.54;1653110;85;22304;-83
2021/11/19 12:11:36;;;;;;;43.95;24.60;;;;;;;4.20;100.00;99479.22;1686437;84;21023;-82
2021/11/19 12:14:14;;;;;;;41.28;23.75;;;;;;;4.23;100.00;99478.28;1678465;85;21179;-90